Weather History for Faribault, MN

Change the Weather History Date:

Thursday, October 4, 2012

  Actual Average Record
Temperature  
Mean Temperature 50 °F -  
Max Temperature 62 °F 65 °F 84 °F (1969)
Min Temperature 39 °F 40 °F 23 °F (1989)
Degree Days  
Heating Degree Days 14    
Moisture  
Dew Point 37 °F    
Average Humidity 65    
Maximum Humidity 82    
Minimum Humidity 45    
Precipitation  
Precipitation 0.00 in - - ()
Sea Level Pressure  
Sea Level Pressure 30.02 in    
Wind  
Wind Speed 15 mph (WSW)    
Max Wind Speed 26 mph    
Max Gust Speed 34 mph    
Visibility 10 miles    
Events      
Averages and records for this station are not official NWS values.
T = Trace of Precipitation, MM = Missing Value Source: NWS Daily Summary

Daily Weather History Graph

Daily Weather History Graph

Search for Another Location

Airport:

Trip Planner

Search our weather history database for the weather conditions in past years. The results will help you decide how hot, cold, wet, or windy it might be!

Date:

Astronomy

Oct. 04, 2012 Rise Set
Actual Time 7:15 AM CDT 6:47 PM CDT
Civil Twilight 6:46 AM CDT 7:16 PM CDT
Nautical Twilight 6:12 AM CDT 7:50 PM CDT
Astronomical Twilight 5:38 AM CDT 8:23 PM CDT
Moon 9:13 PM CDT (10/4) 11:43 AM CDT (10/4)
Length of Visible Light 12h 30m
Length of Day
11h 32m
Waning Gibbous, 82% of the Moon is Illuminated
Oct 4
Waning Gibbous
Oct 8
Last Quarter
Oct 15
New
Oct 21
First Quarter
Oct 29
Full

Hourly Weather History & Observations

Time (CDT) Temp. Windchill Dew Point Humidity Pressure Visibility Wind Dir Wind Speed Gust Speed Precip Events Conditions
12:14 AM 62.6 °F - 44.6 °F 52% 29.85 in 10.0 mi SSE 9.2 mph 16.1 mph N/A   Clear
12:34 AM 62.6 °F - 44.6 °F 52% 29.85 in 10.0 mi SSE 9.2 mph - N/A   Clear
12:54 AM 60.8 °F - 44.6 °F 55% 29.84 in 10.0 mi SE 11.5 mph - N/A   Clear
1:14 AM 60.8 °F - 44.6 °F 55% 29.83 in 10.0 mi SSE 11.5 mph - N/A   Clear
1:34 AM 60.8 °F - 44.6 °F 55% 29.83 in 10.0 mi SSE 9.2 mph - N/A   Clear
1:54 AM 62.6 °F - 42.8 °F 48% 29.83 in 10.0 mi SSE 13.8 mph 18.4 mph N/A   Clear
2:14 AM 62.6 °F - 42.8 °F 48% 29.82 in 10.0 mi South 13.8 mph 17.3 mph N/A   Clear
2:34 AM 60.8 °F - 44.6 °F 55% 29.82 in 10.0 mi South 13.8 mph - N/A   Clear
2:54 AM 60.8 °F - 44.6 °F 55% 29.83 in 10.0 mi South 9.2 mph - N/A   Clear
3:14 AM 60.8 °F - 42.8 °F 52% 29.82 in 10.0 mi SSW 13.8 mph 21.9 mph N/A   Clear
3:34 AM 60.8 °F - 39.2 °F 45% 29.83 in 10.0 mi SSW 15.0 mph 23.0 mph N/A   Clear
3:55 AM 55.4 °F - 42.8 °F 63% 29.85 in 10.0 mi SW 15.0 mph 24.2 mph N/A   Clear
4:14 AM 53.6 °F - 42.8 °F 67% 29.86 in 10.0 mi SW 15.0 mph 21.9 mph N/A   Clear
4:34 AM 51.8 °F - 44.6 °F 76% 29.87 in 10.0 mi SW 18.4 mph 28.8 mph N/A   Clear
4:55 AM 50.0 °F - 42.8 °F 76% 29.88 in 10.0 mi WSW 13.8 mph 24.2 mph N/A   Clear
5:14 AM 48.2 °F - 42.8 °F 82% 29.89 in 10.0 mi WSW 17.3 mph 21.9 mph N/A   Scattered Clouds
5:34 AM 50.0 °F - 42.8 °F 76% 29.90 in 10.0 mi WSW 12.7 mph 21.9 mph N/A   Overcast
5:55 AM 48.2 °F - 42.8 °F 82% 29.91 in 10.0 mi WSW 17.3 mph 21.9 mph N/A   Overcast
6:14 AM 48.2 °F - 42.8 °F 82% 29.91 in 10.0 mi WSW 11.5 mph 21.9 mph N/A   Overcast
6:34 AM 48.2 °F - 42.8 °F 82% 29.93 in 10.0 mi WSW 19.6 mph 25.3 mph N/A   Overcast
6:55 AM 48.2 °F - 41.0 °F 76% 29.94 in 10.0 mi WSW 16.1 mph 26.5 mph N/A   Overcast
7:14 AM 46.4 °F 39.5 °F 39.2 °F 76% 29.96 in 10.0 mi WSW 17.3 mph 29.9 mph N/A   Overcast
7:39 AM 46.4 °F 39.2 °F 39.2 °F 76% 29.95 in 10.0 mi West 18.4 mph 29.9 mph N/A   Overcast
7:55 AM 46.4 °F 40.4 °F 39.2 °F 76% 29.95 in 10.0 mi WSW 13.8 mph 24.2 mph N/A   Overcast
8:14 AM 46.4 °F 40.1 °F 39.2 °F 76% 29.96 in 10.0 mi WSW 15.0 mph 25.3 mph N/A   Overcast
8:34 AM 46.4 °F 39.8 °F 37.4 °F 71% 29.97 in 10.0 mi WSW 16.1 mph 21.9 mph N/A   Overcast
8:54 AM 44.6 °F 37.2 °F 37.4 °F 76% 29.98 in 10.0 mi WSW 17.3 mph 23.0 mph N/A   Mostly Cloudy
9:14 AM 46.4 °F 39.8 °F 37.4 °F 71% 29.99 in 10.0 mi West 16.1 mph 27.6 mph N/A   Mostly Cloudy
9:34 AM 44.6 °F 37.2 °F 35.6 °F 71% 29.99 in 7.0 mi West 17.3 mph 31.1 mph N/A   Mostly Cloudy
9:54 AM 46.4 °F 39.2 °F 35.6 °F 66% 30.01 in 10.0 mi West 18.4 mph 27.6 mph N/A   Mostly Cloudy
10:14 AM 44.6 °F 36.4 °F 35.6 °F 71% 30.02 in 10.0 mi West 20.7 mph 34.5 mph N/A   Scattered Clouds
10:34 AM 44.6 °F 37.4 °F 35.6 °F 71% 30.02 in 7.0 mi West 16.1 mph 27.6 mph N/A   Mostly Cloudy
10:54 AM 44.6 °F 36.4 °F 35.6 °F 71% 30.03 in 10.0 mi West 20.7 mph 25.3 mph N/A   Overcast
11:14 AM 44.6 °F 36.4 °F 35.6 °F 71% 30.04 in 10.0 mi WSW 20.7 mph 27.6 mph N/A   Overcast
11:34 AM 44.6 °F 36.6 °F 35.6 °F 71% 30.04 in 10.0 mi West 19.6 mph 27.6 mph N/A   Overcast
11:54 AM 46.4 °F 39.0 °F 35.6 °F 66% 30.05 in 10.0 mi WSW 19.6 mph 24.2 mph N/A   Overcast
12:14 PM 46.4 °F 39.0 °F 35.6 °F 66% 30.06 in 10.0 mi West 19.6 mph 26.5 mph N/A   Overcast
12:34 PM 46.4 °F 38.3 °F 35.6 °F 66% 30.06 in 10.0 mi West 23.0 mph 31.1 mph N/A   Overcast
12:54 PM 48.2 °F - 35.6 °F 62% 30.07 in 10.0 mi West 17.3 mph 31.1 mph N/A   Overcast
1:14 PM 48.2 °F - 35.6 °F 62% 30.07 in 10.0 mi West 20.7 mph 28.8 mph N/A   Overcast
1:34 PM 48.2 °F - 35.6 °F 62% 30.08 in 10.0 mi West 24.2 mph 32.2 mph N/A   Overcast
1:54 PM 48.2 °F - 33.8 °F 58% 30.08 in 10.0 mi West 17.3 mph 28.8 mph N/A   Overcast
2:14 PM 48.2 °F - 33.8 °F 58% 30.09 in 10.0 mi West 26.5 mph 33.4 mph N/A   Mostly Cloudy
2:34 PM 48.2 °F - 33.8 °F 58% 30.09 in 10.0 mi West 20.7 mph 34.5 mph N/A   Mostly Cloudy
2:54 PM 48.2 °F - 33.8 °F 58% 30.09 in 10.0 mi West 19.6 mph 32.2 mph N/A   Mostly Cloudy
3:14 PM 48.2 °F - 33.8 °F 58% 30.10 in 10.0 mi WNW 26.5 mph 33.4 mph N/A   Mostly Cloudy
3:34 PM 48.2 °F - 33.8 °F 58% 30.11 in 10.0 mi West 24.2 mph 31.1 mph N/A   Mostly Cloudy
3:54 PM 48.2 °F - 33.8 °F 58% 30.11 in 10.0 mi WNW 24.2 mph 32.2 mph N/A   Mostly Cloudy
4:14 PM 46.4 °F 38.5 °F 33.8 °F 62% 30.12 in 10.0 mi West 21.9 mph 32.2 mph N/A   Overcast
4:34 PM 46.4 °F 39.5 °F 33.8 °F 62% 30.12 in 10.0 mi West 17.3 mph 28.8 mph N/A   Mostly Cloudy
4:54 PM 46.4 °F 37.7 °F 32.0 °F 57% 30.12 in 10.0 mi West 26.5 mph 33.4 mph N/A   Scattered Clouds
5:14 PM 46.4 °F 39.5 °F 32.0 °F 57% 30.13 in 10.0 mi West 17.3 mph 27.6 mph N/A   Scattered Clouds
5:54 PM 46.4 °F 38.5 °F 32.0 °F 57% 30.14 in 10.0 mi WNW 21.9 mph 26.5 mph N/A   Scattered Clouds
6:14 PM 44.6 °F 37.4 °F 32.0 °F 61% 30.15 in 10.0 mi West 16.1 mph 25.3 mph N/A   Mostly Cloudy
6:34 PM 44.6 °F 38.1 °F 32.0 °F 61% 30.15 in 10.0 mi WNW 13.8 mph 29.9 mph N/A   Overcast
6:54 PM 44.6 °F 37.4 °F 32.0 °F 61% 30.15 in 10.0 mi WNW 16.1 mph 23.0 mph N/A   Overcast
7:14 PM 44.6 °F 38.1 °F 32.0 °F 61% 30.15 in 10.0 mi West 13.8 mph 18.4 mph N/A   Overcast
7:34 PM 44.6 °F 37.8 °F 32.0 °F 61% 30.16 in 10.0 mi WNW 15.0 mph 20.7 mph N/A   Overcast
7:54 PM 44.6 °F 37.2 °F 32.0 °F 61% 30.16 in 10.0 mi West 17.3 mph 27.6 mph N/A   Overcast
8:14 PM 44.6 °F 37.8 °F 32.0 °F 61% 30.17 in 10.0 mi West 15.0 mph 20.7 mph N/A   Overcast
8:34 PM 44.6 °F 37.8 °F 30.2 °F 57% 30.17 in 10.0 mi WNW 15.0 mph 28.8 mph N/A   Overcast
8:54 PM 44.6 °F 38.8 °F 30.2 °F 57% 30.18 in 10.0 mi West 11.5 mph 26.5 mph N/A   Overcast
9:14 PM 44.6 °F 38.1 °F 32.0 °F 61% 30.18 in 10.0 mi West 13.8 mph 18.4 mph N/A   Overcast
9:34 PM 42.8 °F 36.6 °F 32.0 °F 66% 30.18 in 10.0 mi West 11.5 mph - N/A   Overcast
9:54 PM 44.6 °F 38.8 °F 33.8 °F 66% 30.18 in 10.0 mi West 11.5 mph 21.9 mph N/A   Overcast
10:14 PM 42.8 °F 36.2 °F 33.8 °F 70% 30.18 in 10.0 mi West 12.7 mph 17.3 mph N/A   Mostly Cloudy
10:34 PM 42.8 °F 37.0 °F 33.8 °F 70% 30.18 in 10.0 mi West 10.4 mph 19.6 mph N/A   Mostly Cloudy
10:54 PM 42.8 °F 35.4 °F 33.8 °F 70% 30.18 in 10.0 mi West 15.0 mph 20.7 mph N/A   Scattered Clouds
11:15 PM 41.0 °F 33.1 °F 33.8 °F 76% 30.18 in 10.0 mi West 15.0 mph 24.2 mph N/A   Clear
11:34 PM 39.2 °F 29.8 °F 33.8 °F 81% 30.18 in 10.0 mi West 18.4 mph 21.9 mph N/A   Clear
11:54 PM 39.2 °F 30.5 °F 33.8 °F 81% 30.18 in 10.0 mi West 16.1 mph 25.3 mph N/A   Clear